createdAt,value
2023-05-06T00:03:09.979Z,4.60
2023-05-06T00:06:52.791Z,6.10
2023-05-06T00:10:34.813Z,4.50
2023-05-06T00:14:17.180Z,4.78
2023-05-06T00:17:58.929Z,4.43
2023-05-06T00:21:40.781Z,5.97
2023-05-06T00:25:22.587Z,4.40
2023-05-06T00:29:04.321Z,4.25
2023-05-06T00:32:46.097Z,3.85
2023-05-06T00:36:27.864Z,3.65
2023-05-06T00:40:10.554Z,3.58
2023-05-06T00:43:52.249Z,3.85
2023-05-06T00:47:34.038Z,3.95
2023-05-06T00:51:15.998Z,3.95
2023-05-06T00:54:57.788Z,4.50
2023-05-06T00:58:39.522Z,3.60
2023-05-06T01:02:21.349Z,3.85
2023-05-06T01:06:03.084Z,4.00
2023-05-06T01:09:59.130Z,5.03
2023-05-06T01:13:46.253Z,5.43
2023-05-06T01:17:29.542Z,4.55
2023-05-06T01:21:12.685Z,4.97
2023-05-06T01:24:54.656Z,4.88
2023-05-06T01:28:36.356Z,4.82
2023-05-06T01:32:52.224Z,5.65
2023-05-06T01:36:53.711Z,4.80
2023-05-06T01:40:36.513Z,5.03
2023-05-06T01:44:22.075Z,5.40
2023-05-06T01:48:04.427Z,4.55
2023-05-06T01:51:50.821Z,5.50
2023-05-06T01:55:32.667Z,5.50
2023-05-06T01:59:15.688Z,5.95
2023-05-06T02:02:57.506Z,5.38
2023-05-06T02:06:39.374Z,6.05
2023-05-06T02:10:21.194Z,5.53
2023-05-06T02:14:03.085Z,5.47
2023-05-06T02:17:44.844Z,5.95
2023-05-06T02:21:27.817Z,6.13
2023-05-06T02:28:51.733Z,5.35
2023-05-06T02:32:33.561Z,4.53
2023-05-06T02:36:15.258Z,4.35
2023-05-06T02:39:57.029Z,4.07
2023-05-06T02:43:38.747Z,4.63
2023-05-06T02:47:20.587Z,5.55
2023-05-06T02:51:02.392Z,4.85
2023-05-06T02:54:44.157Z,5.28
2023-05-06T02:58:26.258Z,4.50
2023-05-06T03:02:08.039Z,4.43
2023-05-06T03:05:49.749Z,4.35
2023-05-06T03:09:31.456Z,4.97
2023-05-06T03:13:13.301Z,4.35
2023-05-06T03:16:55.308Z,4.70
2023-05-06T03:20:37.124Z,4.32
2023-05-06T03:24:18.987Z,4.63
2023-05-06T03:28:00.888Z,4.22
2023-05-06T03:31:42.727Z,3.95
2023-05-06T03:35:24.462Z,4.65
2023-05-06T03:39:06.386Z,5.10
2023-05-06T03:42:48.156Z,4.40
2023-05-06T03:46:29.879Z,4.43
2023-05-06T03:50:11.728Z,4.50
2023-05-06T03:53:54.840Z,4.43
2023-05-06T03:57:36.756Z,3.88
2023-05-06T04:01:18.464Z,4.50
2023-05-06T04:05:00.198Z,5.03
2023-05-06T04:08:41.971Z,4.07
2023-05-06T04:12:23.681Z,4.63
2023-05-06T04:16:05.732Z,4.70
2023-05-06T04:19:47.556Z,4.27
2023-05-06T04:23:29.299Z,4.00
2023-05-06T04:27:11.251Z,3.20
2023-05-06T04:30:53.015Z,3.42
2023-05-06T04:34:36.183Z,3.13
2023-05-06T04:38:17.959Z,3.55
2023-05-06T04:41:59.685Z,2.75
2023-05-06T04:45:49.692Z,2.55
2023-05-06T04:49:31.727Z,2.25
2023-05-06T04:53:14.054Z,2.60
2023-05-06T04:56:56.054Z,2.72
2023-05-06T05:00:37.793Z,3.00
2023-05-06T05:04:19.529Z,3.33
2023-05-06T05:08:01.318Z,3.80
2023-05-06T05:11:43.073Z,4.13
2023-05-06T05:15:24.846Z,4.15
2023-05-06T05:19:09.112Z,4.43
2023-05-06T05:22:51.227Z,4.18
2023-05-06T05:26:32.929Z,3.63
2023-05-06T05:30:14.789Z,3.53
2023-05-06T05:33:56.794Z,3.30
2023-05-06T05:37:38.591Z,4.15
2023-05-06T05:41:20.386Z,3.05
2023-05-06T05:45:02.139Z,2.78
2023-05-06T05:48:43.866Z,2.80
2023-05-06T05:52:25.638Z,3.00
2023-05-06T05:56:07.575Z,3.00
2023-05-06T05:59:49.403Z,3.15
2023-05-06T06:03:31.259Z,3.35
2023-05-06T06:07:13.131Z,2.30
2023-05-06T06:10:54.882Z,2.92
2023-05-06T06:14:36.720Z,2.47
2023-05-06T06:18:18.641Z,2.50
2023-05-06T06:22:00.481Z,2.83
2023-05-06T06:25:42.250Z,2.50
2023-05-06T06:29:24.030Z,2.20
2023-05-06T06:33:05.800Z,2.90
2023-05-06T06:36:47.622Z,2.00
2023-05-06T06:40:29.533Z,2.88
2023-05-06T06:44:11.359Z,2.58
2023-05-06T06:47:53.113Z,2.33
2023-05-06T06:51:34.864Z,2.25
2023-05-06T06:55:16.674Z,2.47
2023-05-06T06:58:58.356Z,1.92
2023-05-06T07:02:40.212Z,2.75
2023-05-06T07:06:21.968Z,2.38
2023-05-06T07:10:03.912Z,2.00
2023-05-06T07:13:45.731Z,1.90
2023-05-06T07:17:27.415Z,2.97
2023-05-06T07:21:09.144Z,1.95
2023-05-06T07:24:51.315Z,1.70
2023-05-06T07:28:33.288Z,2.30
2023-05-06T07:32:15.132Z,1.63
2023-05-06T07:35:57.077Z,1.95
2023-05-06T07:39:38.841Z,1.73
2023-05-06T07:43:22.264Z,1.92
2023-05-06T07:47:04.214Z,1.63
2023-05-06T07:50:48.694Z,1.30
2023-05-06T07:54:31.731Z,1.33
2023-05-06T07:58:13.755Z,1.20
2023-05-06T08:01:55.553Z,1.40
2023-05-06T08:05:37.544Z,1.20
2023-05-06T08:09:23.003Z,1.25
2023-05-06T08:13:05.069Z,1.10
2023-05-06T08:16:47.073Z,1.02
2023-05-06T08:20:28.848Z,1.20
2023-05-06T08:24:11.052Z,1.02
2023-05-06T08:27:52.749Z,1.03
2023-05-06T08:31:34.572Z,0.95
2023-05-06T08:35:16.403Z,1.00
2023-05-06T08:38:58.286Z,9.43
2023-05-06T08:42:40.120Z,1.33
2023-05-06T08:46:22.841Z,1.20
2023-05-06T08:50:05.225Z,1.10
2023-05-06T08:53:52.001Z,1.00
2023-05-06T08:57:34.507Z,0.90
2023-05-06T09:01:16.446Z,0.98
2023-05-06T09:04:59.657Z,0.95
2023-05-06T09:08:41.356Z,0.80
2023-05-06T09:12:24.865Z,1.00
2023-05-06T09:16:06.929Z,0.85
2023-05-06T09:19:48.709Z,0.97
2023-05-06T09:23:30.949Z,1.00
2023-05-06T09:27:15.079Z,0.90
2023-05-06T09:30:57.170Z,1.20
2023-05-06T09:34:42.020Z,0.90
2023-05-06T09:38:24.142Z,0.93
2023-05-06T09:42:06.407Z,0.90
2023-05-06T09:45:48.832Z,0.80
2023-05-06T09:49:30.596Z,1.77
2023-05-06T09:53:13.624Z,0.90
2023-05-06T10:00:38.156Z,1.17
2023-05-06T10:04:26.363Z,1.60
2023-05-06T10:08:09.192Z,1.50
2023-05-06T10:11:53.516Z,1.00
2023-05-06T10:15:35.305Z,0.98
2023-05-06T10:19:23.860Z,0.90
2023-05-06T10:23:24.528Z,0.98
2023-05-06T10:27:06.618Z,0.80
2023-05-06T10:30:50.635Z,0.83
2023-05-06T10:34:37.854Z,1.00
2023-05-06T10:38:41.042Z,0.90
2023-05-06T10:42:33.340Z,0.90
2023-05-06T10:46:18.606Z,1.10
2023-05-06T10:50:23.097Z,0.90
2023-05-06T10:54:07.694Z,0.90
2023-05-06T10:57:53.660Z,1.00
2023-05-06T11:01:40.485Z,0.80
2023-05-06T11:05:23.053Z,0.80
2023-05-06T11:09:06.311Z,1.30
2023-05-06T11:12:50.169Z,1.10
2023-05-06T11:16:49.691Z,1.00
2023-05-06T11:20:31.651Z,0.98
2023-05-06T11:24:14.096Z,0.93
2023-05-06T11:27:56.389Z,1.20
2023-05-06T11:31:40.375Z,1.02
2023-05-06T11:35:22.999Z,1.20
2023-05-06T11:39:10.574Z,0.90
2023-05-06T11:42:52.394Z,0.80
2023-05-06T11:46:34.326Z,0.90
2023-05-06T11:50:22.177Z,0.88
2023-05-06T11:54:09.188Z,1.23
2023-05-06T11:57:53.388Z,1.00
2023-05-06T12:01:35.426Z,0.95
2023-05-06T12:05:17.153Z,0.93
2023-05-06T12:08:59.040Z,1.00
2023-05-06T12:12:40.907Z,1.00
2023-05-06T12:16:24.197Z,1.00
2023-05-06T12:20:06.770Z,1.30
2023-05-06T12:23:52.945Z,1.10
2023-05-06T12:27:35.906Z,1.10
2023-05-06T12:35:07.341Z,1.38
2023-05-06T12:39:16.282Z,1.50
2023-05-06T12:42:58.094Z,2.17
2023-05-06T12:46:52.583Z,2.65
2023-05-06T12:50:39.316Z,1.55
2023-05-06T12:54:30.849Z,1.77
2023-05-06T12:58:16.943Z,1.30
2023-05-06T13:01:59.869Z,1.58
2023-05-06T13:09:26.482Z,1.52
2023-05-06T13:13:11.232Z,1.55
2023-05-06T13:16:54.048Z,1.50
2023-05-06T13:20:36.585Z,1.40
2023-05-06T13:24:18.371Z,1.38
2023-05-06T13:28:00.207Z,1.50
2023-05-06T13:31:41.909Z,1.50
2023-05-06T13:35:23.600Z,1.98
2023-05-06T13:39:05.359Z,1.73
2023-05-06T13:42:47.098Z,2.63
2023-05-06T13:46:28.905Z,4.63
2023-05-06T13:50:11.147Z,1.90
2023-05-06T13:53:53.069Z,1.95
2023-05-06T13:57:34.784Z,1.98
2023-05-06T14:01:16.627Z,1.77
2023-05-06T14:04:59.044Z,1.85
2023-05-06T14:08:41.226Z,1.98
2023-05-06T14:12:23.073Z,1.98
2023-05-06T14:16:05.127Z,2.10
2023-05-06T14:19:46.840Z,2.30
2023-05-06T14:23:28.604Z,2.63
2023-05-06T14:27:10.658Z,2.80
2023-05-06T14:30:53.153Z,2.57
2023-05-06T14:34:36.650Z,2.97
2023-05-06T14:38:18.954Z,2.67
2023-05-06T14:42:00.641Z,2.40
2023-05-06T14:45:42.390Z,2.53
2023-05-06T14:49:24.170Z,2.30
2023-05-06T14:53:05.872Z,2.60
2023-05-06T14:56:49.438Z,2.55
2023-05-06T15:00:31.245Z,2.35
2023-05-06T15:04:12.994Z,2.53
2023-05-06T15:07:54.713Z,2.20
2023-05-06T15:11:36.523Z,2.50
2023-05-06T15:15:18.658Z,2.08
2023-05-06T15:19:00.505Z,2.53
2023-05-06T15:22:43.632Z,3.47
2023-05-06T15:26:25.570Z,2.00
2023-05-06T15:30:07.872Z,3.05
2023-05-06T15:33:49.621Z,2.55
2023-05-06T15:37:33.384Z,2.35
2023-05-06T15:41:15.102Z,3.58
2023-05-06T15:44:57.975Z,3.08
2023-05-06T15:48:39.727Z,3.85
2023-05-06T15:52:22.704Z,3.60
2023-05-06T15:56:18.225Z,2.55
2023-05-06T16:00:00.616Z,2.35
2023-05-06T16:03:43.002Z,3.50
2023-05-06T16:07:24.924Z,2.40
2023-05-06T16:11:07.258Z,2.50
2023-05-06T16:14:49.004Z,2.35
2023-05-06T16:18:30.782Z,2.53
2023-05-06T16:22:12.509Z,2.83
2023-05-06T16:25:54.744Z,4.43
2023-05-06T16:29:36.574Z,3.60
2023-05-06T16:33:18.303Z,2.70
2023-05-06T16:37:00.648Z,2.45
2023-05-06T16:40:47.447Z,2.40
2023-05-06T16:44:29.604Z,2.80
2023-05-06T16:48:15.333Z,2.88
2023-05-06T16:51:57.886Z,2.30
2023-05-06T16:55:39.767Z,2.92
2023-05-06T16:59:22.555Z,2.87
2023-05-06T17:03:04.845Z,2.90
2023-05-06T17:06:46.713Z,3.90
2023-05-06T17:10:29.412Z,3.50
2023-05-06T17:17:55.860Z,3.95
2023-05-06T17:21:37.904Z,4.33
2023-05-06T17:25:19.812Z,3.80
2023-05-06T17:29:01.639Z,3.73
2023-05-06T17:32:43.609Z,3.10
2023-05-06T17:36:25.549Z,3.30
2023-05-06T17:40:08.151Z,3.27
2023-05-06T17:43:50.019Z,3.08
2023-05-06T17:47:31.740Z,3.30
2023-05-06T17:51:13.456Z,6.10
2023-05-06T17:55:10.745Z,3.70
2023-05-06T17:59:01.256Z,2.97
2023-05-06T18:02:43.685Z,3.25
2023-05-06T18:06:26.993Z,3.33
2023-05-06T18:10:09.439Z,3.38
2023-05-06T18:13:51.193Z,3.40
2023-05-06T18:17:33.100Z,3.47
2023-05-06T18:21:17.923Z,3.87
2023-05-06T18:24:59.759Z,5.22
2023-05-06T18:28:41.457Z,4.57
2023-05-06T18:32:23.602Z,6.78
2023-05-06T18:36:05.654Z,5.85
2023-05-06T18:39:47.430Z,7.57
2023-05-06T18:43:30.817Z,6.47
2023-05-06T18:47:12.603Z,6.00
2023-05-06T18:50:54.345Z,5.45
2023-05-06T18:54:36.056Z,4.70
2023-05-06T18:58:18.522Z,4.90
2023-05-06T19:02:01.908Z,5.22
2023-05-06T19:05:44.390Z,5.00
2023-05-06T19:09:26.127Z,4.78
2023-05-06T19:13:09.208Z,5.65
2023-05-06T19:16:51.038Z,7.05
2023-05-06T19:20:33.041Z,5.88
2023-05-06T19:24:14.752Z,6.97
2023-05-06T19:27:56.728Z,6.13
2023-05-06T19:31:38.576Z,6.37
2023-05-06T19:35:20.552Z,6.13
2023-05-06T19:39:02.402Z,6.65
2023-05-06T19:42:44.725Z,7.30
2023-05-06T19:46:26.524Z,8.07
2023-05-06T19:50:09.092Z,6.70
2023-05-06T19:53:51.085Z,7.95
2023-05-06T19:57:33.704Z,7.70
2023-05-06T20:01:17.061Z,6.82
2023-05-06T20:05:00.303Z,8.80
2023-05-06T20:08:42.531Z,6.75
2023-05-06T20:12:26.494Z,6.70
2023-05-06T20:16:08.248Z,6.50
2023-05-06T20:19:50.198Z,8.15
2023-05-06T20:23:31.956Z,10.02
2023-05-06T20:27:13.745Z,9.35
2023-05-06T20:30:55.796Z,9.38
2023-05-06T20:34:37.677Z,9.80
2023-05-06T20:38:19.721Z,9.18
2023-05-06T20:42:01.705Z,10.47
2023-05-06T20:45:43.504Z,8.97
2023-05-06T20:49:25.204Z,9.68
2023-05-06T20:53:07.077Z,9.73
2023-05-06T20:56:48.827Z,9.60
2023-05-06T21:00:30.673Z,9.90
2023-05-06T21:04:12.366Z,10.38
2023-05-06T21:07:54.065Z,13.82
2023-05-06T21:11:36.213Z,10.05
2023-05-06T21:15:18.597Z,9.37
2023-05-06T21:19:00.764Z,10.15
2023-05-06T21:22:42.490Z,10.73
2023-05-06T21:26:24.244Z,10.60
2023-05-06T21:30:06.736Z,9.77
2023-05-06T21:33:56.105Z,10.90
2023-05-06T21:37:37.871Z,11.20
2023-05-06T21:41:19.764Z,11.93
2023-05-06T21:45:01.542Z,13.05
2023-05-06T21:48:43.231Z,11.85
2023-05-06T21:52:25.021Z,10.10
2023-05-06T21:56:06.768Z,10.45
2023-05-06T21:59:48.587Z,10.57
2023-05-06T22:03:30.617Z,10.82
2023-05-06T22:07:12.407Z,9.23
2023-05-06T22:10:54.174Z,8.90
2023-05-06T22:14:41.030Z,8.20
2023-05-06T22:18:23.597Z,7.00
2023-05-06T22:22:05.351Z,6.70
2023-05-06T22:25:47.148Z,6.45
2023-05-06T22:29:28.887Z,6.43
2023-05-06T22:33:10.766Z,5.93
2023-05-06T22:36:52.575Z,5.90
2023-05-06T22:40:34.425Z,6.15
2023-05-06T22:44:16.577Z,7.20
2023-05-06T22:47:58.359Z,6.83
2023-05-06T22:51:40.394Z,6.13
2023-05-06T22:55:22.291Z,5.57
2023-05-06T22:59:05.339Z,5.80
2023-05-06T23:02:47.397Z,5.70
2023-05-06T23:06:30.873Z,5.43
2023-05-06T23:10:12.778Z,5.00
2023-05-06T23:13:54.493Z,5.20
2023-05-06T23:17:36.433Z,5.38
2023-05-06T23:21:18.205Z,5.57
2023-05-06T23:24:59.900Z,6.07
2023-05-06T23:28:41.645Z,4.63
2023-05-06T23:32:23.319Z,4.88
2023-05-06T23:36:05.247Z,4.85
2023-05-06T23:39:47.632Z,5.07
2023-05-06T23:43:29.349Z,4.93
2023-05-06T23:47:11.245Z,5.05
2023-05-06T23:50:54.508Z,5.93
2023-05-06T23:54:36.268Z,6.03
2023-05-06T23:58:18.050Z,5.60
